Time;durP1;ratioP1;P1;durP2;ratioP2;P2;SDS_P1;SDS_P2;PMS_P1;PMS_P2;Temp;Humidity;BMP_temperature;BMP_pressure;BME280_temperature;BME280_humidity;BME280_pressure;Samples;Min_cycle;Max_cycle;Signal;HPM_P1;HPM_P2
2023/09/14 00:02:07;;;;;;;9.48;5.68;;;;;;;;;;6068368;23;20020;-79
2023/09/14 00:04:33;;;;;;;6.95;5.47;;;;;;;;;;6067973;23;20010;-80
2023/09/14 00:06:58;;;;;;;8.00;5.80;;;;;;;;;;6068013;23;20710;-79
2023/09/14 00:09:24;;;;;;;6.25;5.15;;;;;;;;;;6093814;23;20006;-77
2023/09/14 00:11:49;;;;;;;7.47;5.63;;;;;;;;;;6068180;23;20057;-77
2023/09/14 00:14:15;;;;;;;8.85;5.30;;;;;;;;;;6068151;23;20017;-79
2023/09/14 00:16:41;;;;;;;6.32;4.53;;;;;;;;;;6068109;23;20424;-78
2023/09/14 00:19:06;;;;;;;7.45;5.28;;;;;;;;;;6068036;23;20546;-78
2023/09/14 00:21:32;;;;;;;8.13;4.38;;;;;;;;;;6093235;23;20006;-77
2023/09/14 00:23:57;;;;;;;6.20;4.22;;;;;;;;;;6068595;23;20228;-78
2023/09/14 00:26:23;;;;;;;5.75;4.05;;;;;;;;;;6098337;23;20006;-78
2023/09/14 00:28:48;;;;;;;5.35;4.03;;;;;;;;;;6073585;23;20015;-78
2023/09/14 00:31:14;;;;;;;4.72;3.97;;;;;;;;;;6094542;23;19999;-79
2023/09/14 00:33:39;;;;;;;5.28;4.15;;;;;;;;;;6093905;23;20077;-79
2023/09/14 00:36:05;;;;;;;5.80;4.30;;;;;;;;;;6094541;23;20009;-79
2023/09/14 00:38:30;;;;;;;4.63;3.95;;;;;;;;;;6093940;23;20010;-80
2023/09/14 00:40:56;;;;;;;5.78;4.00;;;;;;;;;;6068016;23;20317;-78
2023/09/14 00:43:22;;;;;;;4.75;3.70;;;;;;;;;;6067545;23;20011;-79
2023/09/14 00:45:47;;;;;;;6.00;3.40;;;;;;;;;;6067713;23;20116;-79
2023/09/14 00:48:13;;;;;;;5.63;3.60;;;;;;;;;;6067579;23;20424;-78
2023/09/14 00:50:40;;;;;;;6.63;4.15;;;;;;;;;;6093191;23;20320;-80
2023/09/14 00:53:12;;;;;;;5.35;3.55;;;;;;;;;;6093756;23;20009;-79
2023/09/14 00:55:38;;;;;;;4.10;3.28;;;;;;;;;;6093578;23;20010;-79
2023/09/14 00:58:04;;;;;;;4.75;3.50;;;;;;;;;;6093848;23;20448;-78
2023/09/14 01:00:30;;;;;;;3.80;3.40;;;;;;;;;;6093760;23;20013;-79
2023/09/14 01:02:56;;;;;;;5.50;3.47;;;;;;;;;;6094369;23;20006;-78
2023/09/14 01:05:23;;;;;;;4.03;3.63;;;;;;;;;;6070042;23;20006;-79
2023/09/14 01:07:48;;;;;;;3.72;3.38;;;;;;;;;;6072734;23;20421;-78
2023/09/14 01:10:15;;;;;;;3.63;2.97;;;;;;;;;;6079256;23;20006;-79
2023/09/14 01:12:47;;;;;;;4.30;3.40;;;;;;;;;;6080412;23;20008;-77
2023/09/14 01:15:26;;;;;;;4.53;3.53;;;;;;;;;;6075294;23;20313;-79
2023/09/14 01:18:24;;;;;;;4.28;3.53;;;;;;;;;;6094306;23;20014;-78
2023/09/14 01:21:16;;;;;;;6.25;3.67;;;;;;;;;;6067815;23;20007;-78
2023/09/14 01:24:17;;;;;;;4.63;3.63;;;;;;;;;;6067535;23;20432;-79
2023/09/14 01:26:43;;;;;;;4.45;3.50;;;;;;;;;;6067435;23;20065;-79
2023/09/14 01:29:09;;;;;;;4.03;3.13;;;;;;;;;;6066791;23;20010;-78
2023/09/14 01:31:35;;;;;;;4.07;3.67;;;;;;;;;;6067008;23;20002;-79
2023/09/14 01:34:00;;;;;;;4.80;3.72;;;;;;;;;;6067589;23;20091;-79
2023/09/14 01:36:32;;;;;;;3.42;2.97;;;;;;;;;;6067656;23;20057;-78
2023/09/14 01:38:59;;;;;;;;;;;;;;;;;;6096281;23;20006;-78
2023/09/14 01:41:25;;;;;;;3.80;3.13;;;;;;;;;;6069464;23;19909;-80
2023/09/14 01:43:53;;;;;;;4.38;3.38;;;;;;;;;;6070202;23;20141;-80
2023/09/14 01:46:19;;;;;;;3.97;3.03;;;;;;;;;;6070081;23;20010;-79
2023/09/14 01:48:45;;;;;;;5.03;3.75;;;;;;;;;;6094891;23;20006;-79
2023/09/14 01:51:11;;;;;;;4.65;3.20;;;;;;;;;;6069807;23;20002;-78
2023/09/14 01:53:37;;;;;;;3.55;3.20;;;;;;;;;;6069625;23;20017;-79
2023/09/14 01:56:03;;;;;;;4.35;3.63;;;;;;;;;;6069852;23;20021;-78
2023/09/14 01:58:29;;;;;;;3.50;3.08;;;;;;;;;;6069699;23;20623;-79
2023/09/14 02:00:56;;;;;;;8.52;3.70;;;;;;;;;;6095788;23;20010;-79
2023/09/14 02:03:22;;;;;;;5.38;3.45;;;;;;;;;;6071299;23;20007;-80
2023/09/14 02:06:01;;;;;;;5.25;3.50;;;;;;;;;;6071925;23;20021;-80
2023/09/14 02:08:26;;;;;;;4.30;3.40;;;;;;;;;;6098261;23;20013;-79
2023/09/14 02:10:52;;;;;;;5.47;3.47;;;;;;;;;;6073446;23;20284;-79
2023/09/14 02:13:18;;;;;;;4.05;3.65;;;;;;;;;;6097973;23;20009;-79
2023/09/14 02:15:43;;;;;;;6.57;3.13;;;;;;;;;;6071999;23;20321;-78
2023/09/14 02:18:09;;;;;;;4.45;3.97;;;;;;;;;;6097369;23;20103;-78
2023/09/14 02:20:41;;;;;;;4.40;3.83;;;;;;;;;;6098428;23;20009;-79
2023/09/14 02:23:08;;;;;;;5.25;3.30;;;;;;;;;;6096919;23;20002;-76
2023/09/14 02:25:34;;;;;;;5.32;3.17;;;;;;;;;;6069605;23;20114;-79
2023/09/14 02:27:59;;;;;;;6.25;3.45;;;;;;;;;;6065858;23;20637;-79
2023/09/14 02:30:28;;;;;;;3.25;2.83;;;;;;;;;;6076997;23;20006;-79
2023/09/14 02:32:53;;;;;;;6.47;3.22;;;;;;;;;;6088064;23;20088;-79
2023/09/14 02:35:19;;;;;;;7.30;3.45;;;;;;;;;;6089974;23;20006;-77
2023/09/14 02:37:44;;;;;;;3.40;3.10;;;;;;;;;;6077180;23;20092;-79
2023/09/14 02:40:10;;;;;;;3.78;3.15;;;;;;;;;;6071058;23;20368;-79
2023/09/14 02:42:37;;;;;;;5.63;3.50;;;;;;;;;;6070558;23;20010;-78
2023/09/14 02:45:04;;;;;;;4.85;3.05;;;;;;;;;;6097004;23;20106;-80
2023/09/14 02:47:30;;;;;;;3.65;3.20;;;;;;;;;;6074497;23;20006;-79
2023/09/14 02:49:55;;;;;;;4.43;3.05;;;;;;;;;;6069442;23;20444;-79
2023/09/14 02:52:21;;;;;;;4.40;3.20;;;;;;;;;;6093974;23;20376;-79
2023/09/14 02:54:46;;;;;;;4.85;3.15;;;;;;;;;;6094109;23;20078;-79
2023/09/14 02:57:12;;;;;;;4.03;3.13;;;;;;;;;;6094243;23;20003;-78
2023/09/14 02:59:37;;;;;;;6.45;3.75;;;;;;;;;;6068483;23;20013;-79
2023/09/14 03:02:03;;;;;;;3.47;2.83;;;;;;;;;;6094504;23;20060;-80
2023/09/14 03:04:29;;;;;;;4.63;3.38;;;;;;;;;;6093976;23;20126;-79
2023/09/14 03:06:56;;;;;;;7.28;3.33;;;;;;;;;;6068508;23;20010;-79
2023/09/14 03:09:21;;;;;;;3.95;3.05;;;;;;;;;;6095207;23;20077;-79
2023/09/14 03:11:47;;;;;;;4.30;3.45;;;;;;;;;;6068553;23;20006;-79
2023/09/14 03:14:13;;;;;;;4.90;3.22;;;;;;;;;;6068779;23;20038;-78
2023/09/14 03:16:38;;;;;;;3.85;3.20;;;;;;;;;;6068299;23;20002;-81
2023/09/14 03:19:04;;;;;;;3.58;3.20;;;;;;;;;;6089717;23;20030;-79
2023/09/14 03:21:29;;;;;;;5.05;3.00;;;;;;;;;;6094288;23;20455;-77
2023/09/14 03:23:55;;;;;;;7.03;3.40;;;;;;;;;;6068646;23;20456;-77
2023/09/14 03:26:23;;;;;;;4.38;3.15;;;;;;;;;;6092893;23;20455;-78
2023/09/14 03:28:49;;;;;;;4.28;3.15;;;;;;;;;;6068387;23;20002;-78
2023/09/14 03:31:16;;;;;;;5.60;3.15;;;;;;;;;;6068585;23;20007;-79
2023/09/14 03:33:42;;;;;;;3.40;2.88;;;;;;;;;;6068443;23;20084;-79
2023/09/14 03:36:08;;;;;;;3.47;3.10;;;;;;;;;;6093949;23;20033;-78
2023/09/14 03:38:33;;;;;;;3.53;2.60;;;;;;;;;;6068460;23;20612;-79
2023/09/14 03:40:59;;;;;;;3.22;2.78;;;;;;;;;;6094079;23;20012;-77
2023/09/14 03:43:24;;;;;;;4.90;2.63;;;;;;;;;;6069292;23;20017;-77
2023/09/14 03:45:50;;;;;;;9.82;3.30;;;;;;;;;;6068633;23;20349;-77
2023/09/14 03:48:15;;;;;;;2.60;2.13;;;;;;;;;;6072132;23;20396;-78
2023/09/14 03:50:41;;;;;;;2.10;1.90;;;;;;;;;;6094136;23;20680;-79
2023/09/14 03:53:08;;;;;;;2.47;2.20;;;;;;;;;;6068450;23;20435;-78
2023/09/14 03:55:34;;;;;;;2.72;2.08;;;;;;;;;;6093656;23;20324;-78
2023/09/14 03:58:00;;;;;;;1.48;1.38;;;;;;;;;;6068169;23;20013;-79
2023/09/14 04:00:25;;;;;;;2.42;1.60;;;;;;;;;;6067869;23;20010;-77
2023/09/14 04:02:51;;;;;;;2.63;1.70;;;;;;;;;;6093518;23;20483;-78
2023/09/14 04:05:17;;;;;;;1.80;1.33;;;;;;;;;;6094064;23;20026;-78
2023/09/14 04:07:44;;;;;;;2.00;1.30;;;;;;;;;;6068212;23;20014;-79
2023/09/14 04:10:10;;;;;;;1.70;1.60;;;;;;;;;;6094055;23;20009;-79
2023/09/14 04:12:40;;;;;;;1.35;1.00;;;;;;;;;;6067716;23;20006;-78
2023/09/14 04:15:07;;;;;;;1.38;1.20;;;;;;;;;;6068586;23;20002;-79
2023/09/14 04:17:34;;;;;;;2.20;0.88;;;;;;;;;;6067664;23;20467;-73
2023/09/14 04:20:00;;;;;;;1.88;1.13;;;;;;;;;;6086752;23;20100;-76
2023/09/14 04:22:26;;;;;;;4.57;1.40;;;;;;;;;;6091186;23;20030;-78
2023/09/14 04:24:52;;;;;;;0.77;0.73;;;;;;;;;;6092966;23;20037;-76
2023/09/14 04:27:18;;;;;;;1.42;0.90;;;;;;;;;;6068691;23;20412;-76
2023/09/14 04:29:43;;;;;;;2.20;1.42;;;;;;;;;;6067537;23;20085;-76
2023/09/14 04:32:09;;;;;;;3.05;1.17;;;;;;;;;;6094188;23;20033;-76
2023/09/14 04:34:34;;;;;;;1.40;0.80;;;;;;;;;;6089018;23;20006;-76
2023/09/14 04:37:00;;;;;;;0.88;0.80;;;;;;;;;;6068036;23;20003;-77
2023/09/14 04:39:26;;;;;;;0.93;0.70;;;;;;;;;;6068743;23;20123;-76
2023/09/14 04:41:51;;;;;;;2.75;0.90;;;;;;;;;;6069281;23;20440;-76
2023/09/14 04:44:17;;;;;;;1.63;0.70;;;;;;;;;;6069060;23;20010;-77
2023/09/14 04:46:42;;;;;;;0.80;0.70;;;;;;;;;;6067981;23;20009;-77
2023/09/14 04:49:08;;;;;;;1.65;1.15;;;;;;;;;;6065530;23;20021;-75
2023/09/14 04:51:33;;;;;;;1.13;0.80;;;;;;;;;;6092906;23;20073;-76
2023/09/14 04:53:59;;;;;;;1.15;1.02;;;;;;;;;;6067447;23;20010;-77
2023/09/14 04:56:25;;;;;;;1.08;0.90;;;;;;;;;;6067715;23;20030;-76
2023/09/14 04:58:50;;;;;;;1.65;0.70;;;;;;;;;;6064827;23;20014;-76
2023/09/14 05:01:17;;;;;;;7.10;3.55;;;;;;;;;;6093268;23;20033;-76
2023/09/14 05:03:42;;;;;;;3.38;1.17;;;;;;;;;;6066417;23;20011;-79
2023/09/14 05:06:08;;;;;;;4.15;2.60;;;;;;;;;;6093620;23;20422;-79
2023/09/14 05:08:35;;;;;;;2.13;1.00;;;;;;;;;;6092955;23;20007;-79
2023/09/14 05:11:03;;;;;;;3.03;1.90;;;;;;;;;;6091103;23;20006;-77
2023/09/14 05:13:29;;;;;;;2.45;1.95;;;;;;;;;;6093195;23;20009;-76
2023/09/14 05:15:54;;;;;;;4.35;1.80;;;;;;;;;;6064330;23;20527;-77
2023/09/14 05:18:20;;;;;;;1.83;1.40;;;;;;;;;;6061131;23;20330;-76
2023/09/14 05:20:49;;;;;;;6.95;5.45;;;;;;;;;;6090685;23;20029;-76
2023/09/14 05:23:15;;;;;;;4.70;2.75;;;;;;;;;;6070999;23;20006;-77
2023/09/14 05:25:45;;;;;;;2.78;1.63;;;;;;;;;;6072775;23;20014;-77
2023/09/14 05:28:12;;;;;;;3.65;1.85;;;;;;;;;;6098674;23;20017;-78
2023/09/14 05:30:39;;;;;;;2.20;2.00;;;;;;;;;;6071345;23;20010;-76
2023/09/14 05:33:05;;;;;;;2.15;1.95;;;;;;;;;;6073511;23;20026;-78
2023/09/14 05:35:31;;;;;;;3.10;1.70;;;;;;;;;;6069061;23;20018;-76
2023/09/14 05:37:57;;;;;;;5.40;2.08;;;;;;;;;;6069287;23;20006;-75
2023/09/14 05:40:23;;;;;;;7.20;2.38;;;;;;;;;;6066448;23;20531;-77
2023/09/14 05:42:48;;;;;;;5.22;2.42;;;;;;;;;;6070314;23;20038;-76
2023/09/14 05:45:14;;;;;;;4.38;2.30;;;;;;;;;;6092901;23;20002;-77
2023/09/14 05:47:40;;;;;;;5.85;2.80;;;;;;;;;;6092196;23;20013;-75
2023/09/14 05:50:10;;;;;;;1.95;1.75;;;;;;;;;;6090696;23;20003;-76
2023/09/14 05:52:35;;;;;;;4.85;2.22;;;;;;;;;;6088729;23;20010;-77
2023/09/14 05:55:06;;;;;;;3.80;2.58;;;;;;;;;;6092982;23;20013;-77
2023/09/14 05:57:31;;;;;;;3.22;1.70;;;;;;;;;;6060156;23;20061;-77
2023/09/14 06:00:00;;;;;;;3.72;2.03;;;;;;;;;;6064356;23;20010;-77
2023/09/14 06:02:28;;;;;;;2.78;1.75;;;;;;;;;;6087887;23;19998;-78
2023/09/14 06:04:53;;;;;;;6.78;2.53;;;;;;;;;;6090940;23;20002;-76
2023/09/14 06:07:19;;;;;;;6.75;2.83;;;;;;;;;;6092382;23;20006;-76
2023/09/14 06:09:45;;;;;;;1.98;1.88;;;;;;;;;;6064308;23;20014;-75
2023/09/14 06:12:13;;;;;;;4.60;2.05;;;;;;;;;;6065606;23;20088;-80
2023/09/14 06:14:39;;;;;;;4.65;2.13;;;;;;;;;;6065969;23;20022;-76
2023/09/14 06:17:06;;;;;;;2.08;1.70;;;;;;;;;;6092153;23;20026;-76
2023/09/14 06:19:31;;;;;;;2.10;1.70;;;;;;;;;;6088852;23;20009;-77
2023/09/14 06:21:59;;;;;;;3.15;2.22;;;;;;;;;;6092668;23;20011;-74
2023/09/14 06:24:24;;;;;;;4.93;2.50;;;;;;;;;;6092794;23;20299;-75
2023/09/14 06:26:54;;;;;;;6.10;2.70;;;;;;;;;;6066594;23;20093;-77
2023/09/14 06:29:20;;;;;;;5.72;2.35;;;;;;;;;;6064125;23;20015;-75
2023/09/14 06:31:45;;;;;;;5.57;2.50;;;;;;;;;;6057140;23;20003;-75
2023/09/14 06:34:11;;;;;;;2.53;2.33;;;;;;;;;;6065253;23;20014;-78
2023/09/14 06:36:37;;;;;;;5.07;2.72;;;;;;;;;;6085367;23;20363;-77
2023/09/14 06:39:03;;;;;;;4.55;2.80;;;;;;;;;;6064829;23;20034;-76
2023/09/14 06:41:28;;;;;;;3.88;2.55;;;;;;;;;;6064862;23;20062;-80
2023/09/14 06:43:54;;;;;;;5.05;2.60;;;;;;;;;;6067069;23;20006;-78
2023/09/14 06:46:19;;;;;;;3.13;2.58;;;;;;;;;;6066613;23;20440;-77
2023/09/14 06:48:45;;;;;;;4.75;3.08;;;;;;;;;;6090762;23;20010;-76
2023/09/14 06:51:14;;;;;;;2.80;2.10;;;;;;;;;;6040160;23;20153;-79
2023/09/14 06:53:40;;;;;;;3.30;2.05;;;;;;;;;;6066135;23;20018;-75
2023/09/14 06:56:09;;;;;;;2.50;1.80;;;;;;;;;;6067037;23;20010;-76
2023/09/14 06:58:37;;;;;;;9.25;1.83;;;;;;;;;;6090708;23;20452;-75
2023/09/14 07:01:07;;;;;;;5.47;1.67;;;;;;;;;;6065319;23;20420;-81
2023/09/14 07:03:34;;;;;;;2.25;1.50;;;;;;;;;;6091299;23;20009;-76
2023/09/14 07:06:00;;;;;;;2.38;1.52;;;;;;;;;;6065343;23;20021;-77
2023/09/14 07:08:26;;;;;;;2.80;1.75;;;;;;;;;;6066529;23;20011;-77
2023/09/14 07:10:53;;;;;;;2.53;1.67;;;;;;;;;;6087283;23;20062;-77
2023/09/14 07:13:19;;;;;;;1.67;1.45;;;;;;;;;;6063175;23;20006;-77
2023/09/14 07:15:46;;;;;;;4.13;1.70;;;;;;;;;;6089550;23;20006;-76
2023/09/14 07:18:29;;;;;;;1.67;1.50;;;;;;;;;;6064169;23;20056;-75
2023/09/14 07:20:55;;;;;;;2.47;1.50;;;;;;;;;;6061964;23;20002;-74
2023/09/14 07:23:21;;;;;;;8.20;2.35;;;;;;;;;;6064185;23;20014;-75
2023/09/14 07:25:50;;;;;;;3.65;1.92;;;;;;;;;;6092118;23;20077;-77
2023/09/14 07:28:23;;;;;;;3.25;1.80;;;;;;;;;;6070068;23;20028;-76
2023/09/14 07:30:51;;;;;;;1.58;1.48;;;;;;;;;;6095781;23;20073;-76
2023/09/14 07:33:18;;;;;;;2.70;1.58;;;;;;;;;;6101286;23;20002;-75
2023/09/14 07:35:45;;;;;;;5.75;2.25;;;;;;;;;;6057466;23;20006;-75
2023/09/14 07:38:13;;;;;;;1.52;1.42;;;;;;;;;;6076617;23;20010;-78
2023/09/14 07:40:44;;;;;;;2.65;1.67;;;;;;;;;;6063801;23;20014;-77
2023/09/14 07:43:10;;;;;;;1.67;1.55;;;;;;;;;;6034843;23;20025;-76
2023/09/14 07:45:39;;;;;;;3.22;1.67;;;;;;;;;;6088448;23;20014;-77
2023/09/14 07:48:06;;;;;;;6.38;2.33;;;;;;;;;;6060364;23;20010;-77
2023/09/14 07:50:39;;;;;;;2.75;2.10;;;;;;;;;;6056191;23;20010;-79
2023/09/14 07:53:08;;;;;;;2.97;1.70;;;;;;;;;;6039574;23;20089;-78
2023/09/14 07:55:34;;;;;;;2.95;2.15;;;;;;;;;;6087500;23;20491;-75
2023/09/14 07:58:00;;;;;;;3.08;2.17;;;;;;;;;;6088005;23;20069;-77
2023/09/14 08:00:26;;;;;;;1.80;1.70;;;;;;;;;;6085004;23;20006;-77
2023/09/14 08:02:52;;;;;;;2.40;1.80;;;;;;;;;;6036085;23;20378;-76
2023/09/14 08:05:18;;;;;;;2.22;1.52;;;;;;;;;;6087831;23;20480;-77
2023/09/14 08:07:43;;;;;;;4.53;1.73;;;;;;;;;;6090205;23;20030;-75
2023/09/14 08:10:09;;;;;;;3.85;2.00;;;;;;;;;;6059309;23;20340;-75
2023/09/14 08:12:36;;;;;;;3.10;1.50;;;;;;;;;;6087946;23;20010;-77
2023/09/14 08:15:07;;;;;;;6.10;1.95;;;;;;;;;;6067772;23;20010;-79
2023/09/14 08:17:33;;;;;;;4.15;1.55;;;;;;;;;;6062644;23;20030;-76
2023/09/14 08:20:03;;;;;;;1.00;0.90;;;;;;;;;;6087147;23;20035;-76
2023/09/14 08:22:30;;;;;;;3.05;1.30;;;;;;;;;;6061734;23;20101;-77
2023/09/14 08:25:00;;;;;;;2.30;1.60;;;;;;;;;;6062697;23;20077;-76
2023/09/14 08:27:28;;;;;;;9.23;4.82;;;;;;;;;;6059400;23;20013;-77
2023/09/14 08:29:54;;;;;;;3.08;1.45;;;;;;;;;;6085128;23;20038;-77
2023/09/14 08:32:20;;;;;;;1.52;0.80;;;;;;;;;;6060458;23;20006;-75
2023/09/14 08:34:47;;;;;;;1.40;1.17;;;;;;;;;;6088896;23;20037;-76
2023/09/14 08:37:13;;;;;;;1.02;0.77;;;;;;;;;;6058488;23;20460;-76
2023/09/14 08:39:40;;;;;;;2.28;0.98;;;;;;;;;;6058224;23;20060;-77
2023/09/14 08:42:05;;;;;;;2.42;0.88;;;;;;;;;;6059382;23;20443;-77
2023/09/14 08:44:36;;;;;;;2.88;0.75;;;;;;;;;;6064415;23;20010;-76
2023/09/14 08:47:02;;;;;;;1.05;0.60;;;;;;;;;;6090840;23;20002;-76
2023/09/14 08:49:30;;;;;;;1.02;0.73;;;;;;;;;;6040767;23;20363;-77
2023/09/14 08:51:59;;;;;;;6.03;0.80;;;;;;;;;;6069184;23;20002;-78
2023/09/14 08:54:25;;;;;;;3.92;1.30;;;;;;;;;;6070911;23;20022;-77
2023/09/14 08:56:52;;;;;;;5.50;1.00;;;;;;;;;;6070726;23;20010;-77
2023/09/14 08:59:22;;;;;;;1.85;0.80;;;;;;;;;;6092621;23;20443;-77
2023/09/14 09:01:50;;;;;;;0.63;0.50;;;;;;;;;;6098519;23;20054;-78
2023/09/14 09:04:17;;;;;;;0.43;0.40;;;;;;;;;;6103596;23;20030;-77
2023/09/14 09:06:42;;;;;;;3.40;0.50;;;;;;;;;;6096709;23;20365;-78
2023/09/14 09:09:10;;;;;;;2.05;0.63;;;;;;;;;;6065789;23;20014;-77
2023/09/14 09:11:38;;;;;;;4.75;1.00;;;;;;;;;;6066138;23;20010;-78
2023/09/14 09:14:04;;;;;;;2.67;0.77;;;;;;;;;;6063546;23;20397;-78
2023/09/14 09:16:30;;;;;;;1.23;0.55;;;;;;;;;;6063714;23;20014;-78
2023/09/14 09:19:03;;;;;;;2.53;0.47;;;;;;;;;;6088782;23;20026;-77
2023/09/14 09:21:31;;;;;;;1.85;0.50;;;;;;;;;;6090407;23;20010;-78
2023/09/14 09:24:07;;;;;;;2.22;0.60;;;;;;;;;;6090235;23;20013;-78
2023/09/14 09:26:37;;;;;;;6.47;1.17;;;;;;;;;;6064236;23;20304;-79
2023/09/14 09:29:23;;;;;;;1.70;0.70;;;;;;;;;;6087530;23;20090;-77
2023/09/14 09:31:53;;;;;;;2.75;0.75;;;;;;;;;;6087131;23;20010;-78
2023/09/14 09:34:33;;;;;;;1.45;0.75;;;;;;;;;;6093603;23;20016;-78
2023/09/14 09:37:03;;;;;;;1.67;0.55;;;;;;;;;;6064904;23;20014;-77
2023/09/14 09:39:34;;;;;;;2.78;0.73;;;;;;;;;;6089913;23;20029;-74
2023/09/14 09:42:00;;;;;;;2.47;0.75;;;;;;;;;;6068091;23;20014;-78
2023/09/14 09:44:27;;;;;;;1.88;0.93;;;;;;;;;;6070567;23;20010;-77
2023/09/14 09:46:56;;;;;;;1.73;0.57;;;;;;;;;;6075280;23;20006;-78
2023/09/14 09:49:23;;;;;;;0.82;0.73;;;;;;;;;;6074473;23;20037;-78
2023/09/14 10:11:43;;;;;;;;;;;;;;;;;;6092321;23;20021;-80
2023/09/14 10:14:15;;;;;;;3.55;1.60;;;;;;;;;;6095190;23;19932;-78
2023/09/14 10:16:43;;;;;;;1.88;0.60;;;;;;;;;;6069161;23;20010;-78
2023/09/14 10:19:10;;;;;;;0.80;0.52;;;;;;;;;;6093412;23;20018;-78
2023/09/14 10:21:39;;;;;;;1.83;0.80;;;;;;;;;;6066150;23;20040;-78
2023/09/14 10:24:07;;;;;;;2.63;0.70;;;;;;;;;;6064900;23;20092;-79
2023/09/14 10:26:37;;;;;;;0.75;0.70;;;;;;;;;;6089024;23;20006;-79
2023/09/14 10:29:08;;;;;;;0.77;0.52;;;;;;;;;;6063577;23;20010;-78
2023/09/14 10:31:35;;;;;;;;;;;;;;;;;;6067878;23;20066;-79
2023/09/14 10:34:03;;;;;;;1.35;0.68;;;;;;;;;;6068892;23;19937;-76
2023/09/14 10:36:30;;;;;;;1.13;0.60;;;;;;;;;;6035119;23;20014;-79
2023/09/14 10:38:58;;;;;;;1.27;1.13;;;;;;;;;;6090544;23;20007;-76
2023/09/14 10:41:24;;;;;;;2.00;0.90;;;;;;;;;;6091191;23;20281;-76
2023/09/14 10:43:49;;;;;;;3.35;1.20;;;;;;;;;;6066111;23;20401;-78
2023/09/14 10:46:18;;;;;;;2.15;0.95;;;;;;;;;;6068045;23;20010;-78
2023/09/14 10:48:47;;;;;;;0.85;0.60;;;;;;;;;;6068376;23;20003;-77
2023/09/14 10:51:13;;;;;;;2.58;1.10;;;;;;;;;;6065568;23;20324;-77
2023/09/14 10:53:41;;;;;;;3.33;1.13;;;;;;;;;;6064820;23;20480;-76
2023/09/14 10:56:22;;;;;;;6.60;1.25;;;;;;;;;;6018130;23;20018;-77
2023/09/14 10:58:52;;;;;;;7.07;3.05;;;;;;;;;;6065648;23;20093;-81
2023/09/14 11:01:26;;;;;;;2.22;1.10;;;;;;;;;;6040258;23;20042;-76
2023/09/14 11:04:10;;;;;;;3.15;1.00;;;;;;;;;;6065245;23;20016;-76
2023/09/14 11:06:50;;;;;;;1.38;0.65;;;;;;;;;;6065284;23;20014;-76
2023/09/14 11:09:17;;;;;;;1.45;0.80;;;;;;;;;;6090130;23;20010;-77
2023/09/14 11:11:50;;;;;;;3.10;1.00;;;;;;;;;;6066293;23;20017;-77
2023/09/14 11:14:17;;;;;;;1.08;0.60;;;;;;;;;;6064407;23;20066;-77
2023/09/14 11:16:57;;;;;;;2.33;1.05;;;;;;;;;;6090614;23;20380;-78
2023/09/14 11:19:31;;;;;;;1.38;0.80;;;;;;;;;;6090419;23;20571;-75
2023/09/14 11:22:11;;;;;;;2.13;0.75;;;;;;;;;;6090642;23;20744;-78
2023/09/14 11:24:36;;;;;;;1.95;0.95;;;;;;;;;;6091278;23;20014;-78
2023/09/14 11:27:02;;;;;;;1.92;0.85;;;;;;;;;;6066568;23;20094;-78
2023/09/14 11:29:31;;;;;;;2.75;0.98;;;;;;;;;;6090049;23;20659;-76
2023/09/14 11:32:00;;;;;;;5.65;1.33;;;;;;;;;;6064791;23;20041;-79
2023/09/14 11:34:26;;;;;;;2.92;1.42;;;;;;;;;;6062008;23;20006;-76
2023/09/14 11:36:54;;;;;;;2.22;1.23;;;;;;;;;;6066378;23;20029;-78
2023/09/14 11:39:20;;;;;;;3.13;1.05;;;;;;;;;;6063464;23;20014;-76
2023/09/14 11:41:48;;;;;;;2.97;1.20;;;;;;;;;;6091002;23;20560;-77
2023/09/14 11:44:17;;;;;;;1.17;0.90;;;;;;;;;;6063095;23;20069;-78
2023/09/14 11:46:44;;;;;;;1.25;0.93;;;;;;;;;;6065021;23;20089;-76
2023/09/14 11:49:11;;;;;;;2.03;0.95;;;;;;;;;;6065921;23;20011;-77
2023/09/14 11:51:38;;;;;;;3.17;0.82;;;;;;;;;;6064415;23;20033;-76
2023/09/14 11:54:07;;;;;;;4.50;0.82;;;;;;;;;;6090748;23;20006;-77
2023/09/14 11:56:33;;;;;;;6.30;1.13;;;;;;;;;;6064841;23;20459;-76
2023/09/14 11:59:00;;;;;;;2.67;0.90;;;;;;;;;;6090611;23;20017;-76
2023/09/14 12:01:27;;;;;;;1.65;0.90;;;;;;;;;;6087317;23;20451;-78
2023/09/14 12:03:54;;;;;;;1.50;1.05;;;;;;;;;;6088418;23;20051;-77
2023/09/14 12:06:19;;;;;;;0.88;0.68;;;;;;;;;;6064281;23;20336;-76
2023/09/14 12:08:49;;;;;;;3.65;0.90;;;;;;;;;;6062763;23;20014;-78
2023/09/14 12:11:15;;;;;;;1.17;0.60;;;;;;;;;;6063434;23;20010;-75
2023/09/14 12:13:55;;;;;;;1.08;0.57;;;;;;;;;;6084924;23;20003;-78
2023/09/14 12:16:23;;;;;;;0.70;0.40;;;;;;;;;;6092753;23;20046;-77
2023/09/14 12:18:50;;;;;;;1.27;0.60;;;;;;;;;;6066191;23;20338;-77
2023/09/14 12:21:17;;;;;;;0.90;0.60;;;;;;;;;;6038585;23;20132;-77
2023/09/14 12:23:46;;;;;;;0.40;0.30;;;;;;;;;;6060741;23;20038;-77
2023/09/14 12:26:20;;;;;;;1.30;0.70;;;;;;;;;;6061086;23;20015;-77
2023/09/14 12:28:57;;;;;;;0.60;0.60;;;;;;;;;;6063201;23;20015;-77
2023/09/14 12:31:25;;;;;;;4.55;1.42;;;;;;;;;;6063299;23;20074;-77
2023/09/14 12:33:53;;;;;;;1.65;0.70;;;;;;;;;;6063813;23;20362;-78
2023/09/14 12:36:20;;;;;;;4.15;0.90;;;;;;;;;;6063906;23;20022;-78
2023/09/14 12:38:47;;;;;;;12.77;1.75;;;;;;;;;;6066799;23;20015;-77
2023/09/14 12:41:15;;;;;;;3.47;1.30;;;;;;;;;;6072580;23;20003;-78
2023/09/14 12:43:43;;;;;;;3.78;0.77;;;;;;;;;;6073985;23;20034;-79
2023/09/14 12:46:11;;;;;;;2.55;0.70;;;;;;;;;;6064356;23;20225;-78
2023/09/14 12:48:40;;;;;;;0.75;0.60;;;;;;;;;;6064188;23;20010;-78
2023/09/14 12:51:06;;;;;;;0.68;0.50;;;;;;;;;;6059150;23;20014;-80
2023/09/14 12:53:42;;;;;;;4.75;0.90;;;;;;;;;;6060584;23;20452;-78
2023/09/14 12:56:12;;;;;;;0.85;0.60;;;;;;;;;;6056973;23;20428;-80
2023/09/14 12:58:42;;;;;;;0.60;0.60;;;;;;;;;;6061513;23;20002;-78
2023/09/14 13:01:12;;;;;;;2.22;0.75;;;;;;;;;;6056920;23;20618;-78
2023/09/14 13:03:38;;;;;;;1.15;0.75;;;;;;;;;;6059870;23;20011;-81
2023/09/14 13:06:05;;;;;;;1.55;0.45;;;;;;;;;;6058953;23;20018;-78
2023/09/14 13:08:47;;;;;;;2.20;0.80;;;;;;;;;;6060533;23;20013;-80
2023/09/14 13:11:31;;;;;;;1.77;0.98;;;;;;;;;;6057252;23;20007;-80
2023/09/14 13:13:59;;;;;;;2.40;0.73;;;;;;;;;;6057502;23;20070;-78
2023/09/14 13:16:27;;;;;;;9.10;1.15;;;;;;;;;;6084998;23;20007;-79
2023/09/14 13:18:53;;;;;;;0.95;0.70;;;;;;;;;;6060334;23;20018;-75
2023/09/14 13:21:19;;;;;;;2.85;1.60;;;;;;;;;;6066104;23;20321;-79
2023/09/14 13:23:45;;;;;;;3.95;1.55;;;;;;;;;;6061193;23;20474;-78
2023/09/14 13:26:10;;;;;;;0.65;0.60;;;;;;;;;;6064920;23;20040;-80
2023/09/14 13:28:39;;;;;;;1.48;0.73;;;;;;;;;;6070734;23;19999;-80
2023/09/14 13:31:05;;;;;;;1.73;0.80;;;;;;;;;;6063093;23;20017;-81
2023/09/14 13:33:31;;;;;;;3.38;0.90;;;;;;;;;;6065604;23;20011;-80
2023/09/14 13:36:00;;;;;;;1.95;0.70;;;;;;;;;;6066867;23;20473;-79
2023/09/14 13:38:30;;;;;;;4.60;1.30;;;;;;;;;;6063575;23;20014;-79
2023/09/14 13:40:56;;;;;;;1.55;0.90;;;;;;;;;;6063013;23;20011;-79
2023/09/14 13:43:23;;;;;;;1.30;0.70;;;;;;;;;;6063562;23;20090;-80
2023/09/14 13:45:49;;;;;;;11.85;2.53;;;;;;;;;;6065749;23;20007;-78
2023/09/14 13:48:17;;;;;;;19.52;13.73;;;;;;;;;;6068522;23;20035;-80
2023/09/14 13:50:42;;;;;;;0.73;0.70;;;;;;;;;;6067599;23;20034;-78
2023/09/14 13:53:10;;;;;;;1.08;0.60;;;;;;;;;;6067684;23;20010;-78
2023/09/14 13:55:39;;;;;;;3.50;0.60;;;;;;;;;;6068189;23;20011;-78
2023/09/14 13:58:05;;;;;;;2.78;1.10;;;;;;;;;;6054695;23;20017;-79
2023/09/14 14:00:31;;;;;;;1.58;0.85;;;;;;;;;;6080269;23;20002;-80
2023/09/14 14:03:08;;;;;;;0.85;0.50;;;;;;;;;;6079151;23;20010;-77
2023/09/14 14:05:34;;;;;;;1.48;0.98;;;;;;;;;;6079938;23;20003;-80
2023/09/14 14:08:01;;;;;;;1.10;0.65;;;;;;;;;;6074149;23;20007;-78
2023/09/14 14:10:26;;;;;;;4.75;1.00;;;;;;;;;;6067540;23;20015;-79
2023/09/14 14:12:52;;;;;;;2.78;1.35;;;;;;;;;;6066701;23;20011;-80
2023/09/14 14:15:18;;;;;;;1.17;0.90;;;;;;;;;;6065044;23;20046;-79
2023/09/14 14:17:46;;;;;;;4.45;3.47;;;;;;;;;;6067426;23;20796;-80
2023/09/14 14:20:12;;;;;;;2.60;0.60;;;;;;;;;;6094064;23;20061;-79
2023/09/14 14:22:39;;;;;;;3.50;1.23;;;;;;;;;;6068346;23;20010;-78
2023/09/14 14:25:05;;;;;;;2.20;0.95;;;;;;;;;;6067385;23;20010;-78
2023/09/14 14:27:32;;;;;;;2.20;0.93;;;;;;;;;;6067700;23;20010;-78
2023/09/14 14:29:58;;;;;;;2.47;0.80;;;;;;;;;;6041662;23;20028;-79
2023/09/14 14:32:24;;;;;;;5.18;0.73;;;;;;;;;;6094197;23;20374;-79
2023/09/14 14:34:49;;;;;;;2.30;0.90;;;;;;;;;;6068276;23;20006;-80
2023/09/14 14:37:15;;;;;;;1.83;1.02;;;;;;;;;;6095458;23;20060;-81
2023/09/14 14:39:40;;;;;;;1.75;0.70;;;;;;;;;;6096151;23;20024;-78
2023/09/14 14:42:06;;;;;;;1.48;0.80;;;;;;;;;;6070844;23;20014;-78
2023/09/14 14:44:32;;;;;;;2.17;0.90;;;;;;;;;;6100505;23;20018;-82
2023/09/14 14:46:57;;;;;;;6.68;1.10;;;;;;;;;;6092003;23;20006;-79
2023/09/14 14:49:23;;;;;;;1.58;0.68;;;;;;;;;;6108698;23;20010;-81
2023/09/14 14:51:48;;;;;;;1.75;1.02;;;;;;;;;;6096092;23;20018;-79
2023/09/14 14:54:15;;;;;;;1.60;1.05;;;;;;;;;;6070506;23;20057;-78
2023/09/14 14:56:43;;;;;;;2.88;1.23;;;;;;;;;;6095982;23;20010;-79
2023/09/14 14:59:08;;;;;;;2.78;1.00;;;;;;;;;;6096142;23;20006;-80
2023/09/14 15:01:34;;;;;;;2.00;1.20;;;;;;;;;;6069901;23;20017;-78
2023/09/14 15:03:59;;;;;;;1.50;0.82;;;;;;;;;;6093371;23;20084;-76
2023/09/14 15:06:26;;;;;;;3.03;0.60;;;;;;;;;;6094105;23;20002;-76